Time;durP1;ratioP1;P1;durP2;ratioP2;P2;SDS_P1;SDS_P2;PMS_P1;PMS_P2;Temp;Humidity;BMP_temperature;BMP_pressure;BME280_temperature;BME280_humidity;BME280_pressure;Samples;Min_cycle;Max_cycle;Signal;HPM_P1;HPM_P2
2021/08/10 00:02:03;;;;;;;5.20;3.43;;;13.60;99.90;;;;;;5022452;28;20533;-55
2021/08/10 00:04:29;;;;;;;7.50;3.20;;;13.60;99.90;;;;;;5030193;28;20633;-57
2021/08/10 00:07:00;;;;;;;5.40;3.80;;;13.60;99.90;;;;;;5022984;28;20419;-56
2021/08/10 00:09:26;;;;;;;7.83;3.73;;;13.60;99.90;;;;;;5015222;28;21133;-57
2021/08/10 00:12:20;;;;;;;3.20;2.87;;;13.60;99.90;;;;;;5028570;28;20453;-56
2021/08/10 00:14:55;;;;;;;4.07;3.47;;;13.60;99.90;;;;;;5015392;28;20287;-56
2021/08/10 00:17:23;;;;;;;4.17;3.53;;;13.50;99.90;;;;;;5014526;28;20540;-57
2021/08/10 00:20:09;;;;;;;6.60;3.40;;;13.50;99.90;;;;;;5029731;28;20422;-56
2021/08/10 00:22:44;;;;;;;8.23;3.87;;;13.50;99.90;;;;;;5029132;28;20497;-56
2021/08/10 00:25:10;;;;;;;4.80;3.17;;;13.50;99.90;;;;;;5029838;28;20875;-55
2021/08/10 00:27:50;;;;;;;5.73;3.33;;;13.40;99.90;;;;;;5028897;28;20523;-56
2021/08/10 00:30:24;;;;;;;9.20;3.40;;;13.40;99.90;;;;;;5029811;28;20442;-56
2021/08/10 00:32:50;;;;;;;9.40;3.87;;;13.40;99.90;;;;;;5013238;28;20434;-55
2021/08/10 00:35:19;;;;;;;4.60;3.80;;;13.40;99.90;;;;;;5008147;28;20458;-56
2021/08/10 00:37:50;;;;;;;6.27;3.30;;;13.40;99.90;;;;;;5021875;28;20306;-56
2021/08/10 00:40:19;;;;;;;4.07;3.27;;;13.30;99.90;;;;;;5027670;28;21040;-59
2021/08/10 00:42:47;;;;;;;8.53;3.47;;;13.30;99.90;;;;;;5021628;28;20430;-56
2021/08/10 00:45:18;;;;;;;5.10;3.00;;;13.20;99.90;;;;;;5028000;28;20914;-55
2021/08/10 00:47:56;;;;;;;5.20;3.60;;;13.20;99.90;;;;;;5022115;28;20498;-58
2021/08/10 00:50:26;;;;;;;3.43;3.03;;;13.10;99.90;;;;;;5026175;28;20460;-56
2021/08/10 00:53:10;;;;;;;6.00;3.70;;;13.20;99.90;;;;;;5030112;28;20399;-60
2021/08/10 00:55:50;;;;;;;5.00;3.13;;;13.10;99.90;;;;;;5028686;28;20487;-57
2021/08/10 00:58:18;;;;;;;7.00;3.60;;;13.10;99.90;;;;;;5028333;28;20438;-56
2021/08/10 01:00:44;;;;;;;5.40;3.57;;;13.10;99.90;;;;;;5028645;28;20461;-58
2021/08/10 01:03:18;;;;;;;8.20;3.40;;;13.00;99.90;;;;;;5025774;28;20872;-54
2021/08/10 01:05:48;;;;;;;8.10;3.67;;;13.00;99.90;;;;;;5009726;28;20160;-56
2021/08/10 01:08:33;;;;;;;9.23;3.30;;;13.00;99.90;;;;;;5016495;28;20434;-57
2021/08/10 01:11:27;;;;;;;4.27;3.27;;;13.00;99.90;;;;;;5021603;28;20543;-57
2021/08/10 01:14:03;;;;;;;6.43;4.17;;;13.00;99.90;;;;;;5009592;28;20766;-55
2021/08/10 01:16:53;;;;;;;5.07;3.33;;;13.00;99.90;;;;;;5009048;28;20450;-56
2021/08/10 01:19:55;;;;;;;4.77;3.47;;;13.00;99.90;;;;;;5021867;28;20529;-57
2021/08/10 01:22:33;;;;;;;8.30;4.27;;;13.00;99.90;;;;;;5028423;28;20907;-57
2021/08/10 01:25:20;;;;;;;4.20;3.47;;;12.90;99.90;;;;;;5027502;28;21011;-55
2021/08/10 01:28:50;;;;;;;6.40;3.97;;;12.90;99.90;;;;;;5021784;28;20413;-56
2021/08/10 01:31:28;;;;;;;4.73;3.20;;;12.90;99.90;;;;;;4986544;28;20435;-58
2021/08/10 01:34:14;;;;;;;3.60;3.30;;;12.90;99.90;;;;;;4994209;28;20459;-58
2021/08/10 01:36:44;;;;;;;6.00;3.50;;;12.90;99.90;;;;;;5015970;28;20455;-59
2021/08/10 01:39:12;;;;;;;4.40;3.63;;;12.90;99.90;;;;;;5022556;28;20453;-59
2021/08/10 01:41:39;;;;;;;7.90;4.17;;;12.90;99.90;;;;;;5020398;28;20434;-56
2021/08/10 01:44:14;;;;;;;9.87;3.20;;;12.90;99.90;;;;;;5027784;28;20461;-58
2021/08/10 01:46:40;;;;;;;4.93;4.20;;;12.90;99.90;;;;;;5026956;28;20430;-57
2021/08/10 01:49:15;;;;;;;5.40;3.63;;;12.80;99.90;;;;;;5027020;28;20970;-57
2021/08/10 01:51:41;;;;;;;6.83;3.20;;;12.80;99.90;;;;;;5027991;28;20488;-57
2021/08/10 01:54:14;;;;;;;6.20;4.23;;;12.80;99.90;;;;;;5025401;28;20428;-57
2021/08/10 01:56:58;;;;;;;3.80;3.40;;;12.70;99.90;;;;;;5016799;28;20445;-56
2021/08/10 01:59:28;;;;;;;7.50;3.30;;;12.70;99.90;;;;;;5023542;28;20806;-57
2021/08/10 02:01:58;;;;;;;4.00;3.20;;;12.70;99.90;;;;;;5023779;28;20775;-56
2021/08/10 02:04:26;;;;;;;6.53;3.80;;;12.60;99.90;;;;;;5026882;28;20426;-57
2021/08/10 02:09:50;;;;;;;3.73;3.00;;;12.60;99.90;;;;;;5024231;28;20484;-56
2021/08/10 02:12:30;;;;;;;6.57;3.33;;;12.60;99.90;;;;;;5027101;28;20902;-56
2021/08/10 02:15:16;;;;;;;4.13;3.40;;;12.60;99.90;;;;;;5025084;28;20434;-57
2021/08/10 02:17:54;;;;;;;3.40;3.10;;;12.60;99.90;;;;;;5028196;28;20464;-59
2021/08/10 02:20:20;;;;;;;8.53;3.30;;;12.50;99.90;;;;;;5027301;28;20462;-57
2021/08/10 02:22:52;;;;;;;8.03;3.77;;;12.50;99.90;;;;;;5026409;28;20534;-58
2021/08/10 02:25:30;;;;;;;5.80;3.40;;;12.50;99.90;;;;;;5026964;28;20266;-58
2021/08/10 02:28:20;;;;;;;4.73;3.07;;;12.50;99.90;;;;;;5008724;28;20417;-59
2021/08/10 02:30:54;;;;;;;7.03;3.67;;;12.40;99.90;;;;;;5025239;28;20603;-58
2021/08/10 02:33:25;;;;;;;5.20;3.53;;;12.40;99.90;;;;;;5023849;28;20480;-58
2021/08/10 02:35:53;;;;;;;6.83;3.53;;;12.40;99.90;;;;;;5025687;28;20422;-54
2021/08/10 02:38:25;;;;;;;6.13;3.20;;;12.40;99.90;;;;;;5027405;28;20505;-56
2021/08/10 02:41:04;;;;;;;5.20;3.10;;;12.40;99.90;;;;;;5026222;28;20534;-57
2021/08/10 02:43:46;;;;;;;5.23;3.60;;;12.30;99.90;;;;;;5023028;28;20430;-57
2021/08/10 02:46:30;;;;;;;4.10;3.10;;;12.30;99.90;;;;;;5026322;28;20411;-56
2021/08/10 02:48:56;;;;;;;4.40;3.83;;;12.30;99.90;;;;;;5027324;28;20438;-58
2021/08/10 02:51:39;;;;;;;7.33;3.50;;;12.30;99.90;;;;;;5027534;28;21010;-59
2021/08/10 02:54:11;;;;;;;6.07;3.57;;;12.20;99.90;;;;;;5008517;28;20185;-57
2021/08/10 02:56:45;;;;;;;6.93;3.60;;;12.20;99.90;;;;;;5010260;28;20822;-56
2021/08/10 02:59:38;;;;;;;4.10;3.37;;;12.10;99.90;;;;;;5025664;28;20505;-56
2021/08/10 03:02:24;;;;;;;4.47;3.50;;;12.20;99.90;;;;;;5019776;28;20449;-56
2021/08/10 03:05:02;;;;;;;4.23;3.40;;;12.10;99.90;;;;;;5025649;28;20438;-57
2021/08/10 03:07:30;;;;;;;3.60;3.30;;;12.10;99.90;;;;;;5029355;28;20971;-57
2021/08/10 03:10:08;;;;;;;3.63;3.27;;;12.10;99.90;;;;;;5031450;28;20418;-56
2021/08/10 03:12:51;;;;;;;3.73;3.30;;;12.10;99.90;;;;;;5028793;28;20480;-58
2021/08/10 03:15:43;;;;;;;3.90;3.40;;;12.00;99.90;;;;;;5011393;28;20770;-57
2021/08/10 03:18:26;;;;;;;8.60;3.90;;;12.00;99.90;;;;;;5026295;28;20418;-57
2021/08/10 03:21:00;;;;;;;4.00;3.60;;;12.00;99.90;;;;;;5029854;28;20465;-58
2021/08/10 03:23:57;;;;;;;4.43;3.77;;;12.00;99.90;;;;;;5031252;28;20517;-56
2021/08/10 03:26:28;;;;;;;3.77;3.40;;;12.00;99.90;;;;;;5029742;28;20418;-57
2021/08/10 03:28:59;;;;;;;5.90;3.37;;;11.90;99.90;;;;;;5030500;28;20434;-55
2021/08/10 03:31:35;;;;;;;6.03;3.50;;;11.90;99.90;;;;;;5024268;28;20474;-55
2021/08/10 03:34:01;;;;;;;7.27;3.03;;;11.90;99.90;;;;;;5023050;28;20436;-57
2021/08/10 03:36:32;;;;;;;7.37;3.27;;;11.80;99.90;;;;;;5018653;28;20459;-56
2021/08/10 03:38:59;;;;;;;7.30;3.30;;;11.80;99.90;;;;;;5023471;28;20175;-56
2021/08/10 03:41:26;;;;;;;5.10;3.63;;;11.80;99.90;;;;;;5029785;28;20553;-57
2021/08/10 03:43:53;;;;;;;7.30;3.70;;;11.80;99.90;;;;;;5011520;28;20787;-57
2021/08/10 03:46:19;;;;;;;3.63;3.30;;;11.80;99.90;;;;;;5010736;28;20407;-57
2021/08/10 03:48:46;;;;;;;4.30;3.23;;;11.80;99.90;;;;;;5028646;28;20521;-59
2021/08/10 03:51:13;;;;;;;7.03;3.57;;;11.80;99.90;;;;;;5028230;28;20219;-56
2021/08/10 03:53:39;;;;;;;4.50;3.60;;;11.80;99.90;;;;;;5019684;28;20410;-57
2021/08/10 03:56:06;;;;;;;6.47;3.60;;;11.70;99.90;;;;;;5013522;28;20459;-58
2021/08/10 03:58:35;;;;;;;5.10;3.67;;;11.70;99.90;;;;;;5010873;28;20443;-57
2021/08/10 04:01:03;;;;;;;7.40;4.03;;;11.70;99.90;;;;;;5013781;28;20443;-54
2021/08/10 04:03:31;;;;;;;6.90;3.70;;;11.60;99.90;;;;;;5014715;28;20558;-55
2021/08/10 04:05:59;;;;;;;4.90;3.53;;;11.60;99.90;;;;;;5024796;28;20491;-56
2021/08/10 04:08:27;;;;;;;6.67;4.53;;;11.60;99.90;;;;;;5030233;28;20418;-58
2021/08/10 04:10:53;;;;;;;6.43;3.60;;;11.60;99.90;;;;;;5029003;28;20481;-55
2021/08/10 04:13:19;;;;;;;5.40;3.20;;;11.60;99.90;;;;;;5030129;28;20414;-57
2021/08/10 04:15:47;;;;;;;6.77;3.87;;;11.60;99.90;;;;;;5029985;28;20449;-58
2021/08/10 04:18:19;;;;;;;4.80;3.17;;;11.60;99.90;;;;;;5029548;28;20406;-56
2021/08/10 04:20:49;;;;;;;6.63;3.40;;;11.60;99.90;;;;;;5036907;23;20565;-56
2021/08/10 04:23:15;;;;;;;3.67;3.17;;;11.50;99.90;;;;;;5010670;28;20928;-59
2021/08/10 04:25:41;;;;;;;12.43;3.63;;;11.60;99.90;;;;;;5004366;28;20568;-59
2021/08/10 04:28:06;;;;;;;4.07;3.57;;;11.50;99.90;;;;;;5010472;28;20886;-59
2021/08/10 04:30:32;;;;;;;5.03;3.20;;;11.50;99.90;;;;;;5010127;28;20710;-59
2021/08/10 04:32:58;;;;;;;5.57;3.40;;;11.60;99.90;;;;;;5011792;28;20667;-60
2021/08/10 04:35:25;;;;;;;5.00;3.70;;;11.60;99.90;;;;;;5009921;28;20424;-59
2021/08/10 04:37:51;;;;;;;3.63;3.13;;;11.60;99.90;;;;;;5011509;28;20690;-60
2021/08/10 04:40:17;;;;;;;3.90;3.50;;;11.50;99.90;;;;;;5007592;28;20543;-58
2021/08/10 04:42:43;;;;;;;6.00;3.60;;;11.50;99.90;;;;;;5010851;28;20434;-58
2021/08/10 04:45:09;;;;;;;5.33;3.50;;;11.50;99.90;;;;;;5011409;28;20247;-59
2021/08/10 04:47:34;;;;;;;3.77;3.37;;;11.60;99.90;;;;;;4999378;28;20177;-58
2021/08/10 04:50:00;;;;;;;4.03;3.37;;;11.60;99.90;;;;;;5010725;28;20420;-59
2021/08/10 04:52:26;;;;;;;5.83;3.87;;;11.60;99.90;;;;;;5000160;28;20220;-58
2021/08/10 04:54:51;;;;;;;5.70;3.80;;;11.70;99.90;;;;;;4991213;28;20649;-58
2021/08/10 04:57:17;;;;;;;5.10;4.60;;;11.70;99.90;;;;;;5008260;28;20196;-58
2021/08/10 04:59:45;;;;;;;7.07;4.27;;;11.80;99.90;;;;;;5009899;28;20177;-59
2021/08/10 05:02:10;;;;;;;11.10;4.20;;;11.90;99.90;;;;;;5008801;28;20203;-59
2021/08/10 05:04:36;;;;;;;8.83;4.80;;;11.90;99.90;;;;;;5004336;28;20953;-59
2021/08/10 05:07:02;;;;;;;5.87;3.73;;;11.80;99.90;;;;;;5002330;28;20177;-58
2021/08/10 05:09:31;;;;;;;3.87;3.57;;;11.80;99.90;;;;;;5010101;28;20204;-59
2021/08/10 05:11:57;;;;;;;6.20;3.60;;;11.90;99.90;;;;;;5010834;28;20431;-58
2021/08/10 05:14:23;;;;;;;7.73;3.47;;;11.90;99.90;;;;;;5010972;28;20427;-59
2021/08/10 05:16:49;;;;;;;4.07;2.90;;;11.90;99.90;;;;;;5008110;28;20469;-59
2021/08/10 05:19:15;;;;;;;8.67;4.00;;;11.90;99.90;;;;;;5010416;28;20537;-58
2021/08/10 05:21:40;;;;;;;6.20;3.33;;;11.90;99.90;;;;;;5010073;28;20199;-58
2021/08/10 05:24:06;;;;;;;5.37;3.70;;;11.90;99.90;;;;;;5008429;28;20706;-58
2021/08/10 05:26:32;;;;;;;4.50;3.93;;;12.00;99.90;;;;;;5009843;28;20169;-58
2021/08/10 05:28:57;;;;;;;4.10;3.50;;;12.10;99.90;;;;;;5010187;28;20252;-58
2021/08/10 05:31:23;;;;;;;5.57;3.30;;;12.20;99.90;;;;;;5019225;28;20243;-58
2021/08/10 05:33:49;;;;;;;7.70;4.03;;;12.20;99.90;;;;;;5016937;28;20212;-59
2021/08/10 05:36:15;;;;;;;5.20;3.20;;;12.30;99.90;;;;;;5021839;28;20188;-57
2021/08/10 05:38:43;;;;;;;3.97;3.00;;;12.30;99.90;;;;;;5017020;28;20203;-57
2021/08/10 05:41:09;;;;;;;4.10;3.40;;;12.30;99.90;;;;;;5010430;28;20185;-58
2021/08/10 05:43:35;;;;;;;5.73;3.73;;;12.30;99.90;;;;;;5009664;28;20434;-59
2021/08/10 05:46:01;;;;;;;5.97;3.70;;;12.30;99.90;;;;;;5001061;28;20494;-58
2021/08/10 05:48:26;;;;;;;4.17;3.40;;;12.40;99.90;;;;;;5006814;28;20165;-58
2021/08/10 05:50:52;;;;;;;3.50;3.20;;;12.40;99.90;;;;;;5001845;28;20192;-58
2021/08/10 05:53:18;;;;;;;3.27;2.97;;;12.50;99.90;;;;;;5009410;28;20185;-59
2021/08/10 05:55:44;;;;;;;3.93;3.07;;;12.60;99.90;;;;;;5009711;28;20167;-58
2021/08/10 05:58:09;;;;;;;4.07;3.40;;;12.70;99.90;;;;;;5010500;28;20204;-58
2021/08/10 06:00:35;;;;;;;6.30;3.50;;;12.70;99.90;;;;;;5008458;28;20691;-58
2021/08/10 06:03:01;;;;;;;8.50;3.50;;;12.80;99.90;;;;;;5009881;28;20172;-58
2021/08/10 06:05:27;;;;;;;8.40;3.77;;;12.90;99.90;;;;;;5009368;28;20462;-57
2021/08/10 06:07:52;;;;;;;4.53;4.10;;;12.90;99.90;;;;;;5008476;28;20204;-58
2021/08/10 06:10:18;;;;;;;4.70;4.03;;;13.00;99.90;;;;;;5008010;28;20203;-57
2021/08/10 06:12:44;;;;;;;6.80;3.77;;;13.00;99.90;;;;;;5010019;28;20259;-58
2021/08/10 06:15:10;;;;;;;7.33;3.60;;;13.10;99.90;;;;;;5009462;28;20176;-58
2021/08/10 06:17:36;;;;;;;3.97;3.60;;;13.10;99.90;;;;;;5009627;28;20212;-58
2021/08/10 06:20:01;;;;;;;4.60;3.10;;;13.20;99.90;;;;;;5009978;28;20423;-59
2021/08/10 06:22:27;;;;;;;4.17;3.60;;;13.30;99.90;;;;;;5009978;28;20223;-58
2021/08/10 06:24:53;;;;;;;3.93;3.53;;;13.30;99.90;;;;;;5008968;28;20538;-58
2021/08/10 06:27:19;;;;;;;6.50;3.73;;;13.40;99.90;;;;;;5006635;28;20580;-58
2021/08/10 06:29:45;;;;;;;5.70;3.43;;;13.50;99.90;;;;;;5009792;28;20184;-57
2021/08/10 06:32:11;;;;;;;4.50;3.30;;;13.50;99.90;;;;;;5008729;28;20451;-58
2021/08/10 06:34:36;;;;;;;6.80;3.80;;;13.60;99.90;;;;;;5009309;28;20176;-58
2021/08/10 06:37:02;;;;;;;5.67;3.47;;;13.60;99.90;;;;;;5009046;28;20224;-59
2021/08/10 06:39:27;;;;;;;9.00;3.33;;;13.70;99.90;;;;;;5006940;28;20537;-59
2021/08/10 06:41:53;;;;;;;4.07;3.50;;;13.70;99.90;;;;;;5003322;28;20283;-58
2021/08/10 06:44:19;;;;;;;5.30;3.60;;;13.80;99.90;;;;;;5007322;28;20648;-58
2021/08/10 06:46:44;;;;;;;4.27;3.43;;;13.80;99.90;;;;;;4996479;28;20252;-58
2021/08/10 06:49:10;;;;;;;7.33;3.70;;;13.80;99.90;;;;;;5005030;28;20181;-58
2021/08/10 06:51:36;;;;;;;4.50;3.53;;;13.90;99.90;;;;;;5013319;28;20712;-59
2021/08/10 06:54:02;;;;;;;3.60;3.20;;;14.00;99.90;;;;;;5010071;28;20172;-58
2021/08/10 06:56:28;;;;;;;5.67;3.80;;;14.10;99.90;;;;;;5013139;28;20975;-57
2021/08/10 06:58:53;;;;;;;5.70;4.00;;;14.10;99.90;;;;;;5012848;28;20171;-58
2021/08/10 07:01:19;;;;;;;7.30;3.40;;;14.10;99.90;;;;;;5012425;28;20679;-58
2021/08/10 07:03:45;;;;;;;6.87;3.80;;;14.20;99.90;;;;;;5008656;28;20700;-58
2021/08/10 07:06:11;;;;;;;7.10;3.87;;;14.30;99.90;;;;;;5011681;28;20668;-57
2021/08/10 07:08:37;;;;;;;4.80;3.87;;;14.40;99.90;;;;;;5012670;28;20184;-58
2021/08/10 07:11:03;;;;;;;5.70;3.87;;;14.40;99.90;;;;;;5011859;28;20435;-59
2021/08/10 07:13:29;;;;;;;6.77;3.93;;;14.50;99.90;;;;;;5013413;28;20490;-58
2021/08/10 07:15:54;;;;;;;8.70;5.87;;;14.50;99.90;;;;;;5011777;28;20247;-58
2021/08/10 07:18:20;;;;;;;6.40;4.13;;;14.60;99.90;;;;;;5010195;28;20834;-58
2021/08/10 07:20:46;;;;;;;7.27;4.10;;;14.70;99.90;;;;;;5008220;28;20204;-53
2021/08/10 07:23:11;;;;;;;8.63;4.27;;;14.80;99.90;;;;;;5011036;28;20168;-57
2021/08/10 07:25:37;;;;;;;5.90;4.00;;;14.90;99.90;;;;;;5010719;28;20227;-57
2021/08/10 07:28:03;;;;;;;7.63;3.67;;;15.00;99.90;;;;;;5010697;28;20207;-57
2021/08/10 07:30:28;;;;;;;6.50;3.80;;;15.10;99.90;;;;;;5017784;28;20177;-58
2021/08/10 07:32:54;;;;;;;4.97;3.40;;;15.10;99.90;;;;;;5010636;28;20246;-58
2021/08/10 07:35:20;;;;;;;5.67;3.60;;;15.20;99.90;;;;;;4999719;28;20169;-55
2021/08/10 07:37:45;;;;;;;4.93;3.10;;;15.30;99.90;;;;;;5010277;28;20207;-58
2021/08/10 07:40:12;;;;;;;6.83;3.10;;;15.30;99.90;;;;;;5006617;28;20187;-59
2021/08/10 07:42:38;;;;;;;5.70;3.87;;;15.40;99.90;;;;;;5007552;28;20196;-59
2021/08/10 07:45:06;;;;;;;3.97;3.10;;;15.40;99.90;;;;;;5010281;28;20438;-59
2021/08/10 07:47:34;;;;;;;5.13;3.30;;;15.60;99.90;;;;;;5005234;28;20184;-59
2021/08/10 07:50:00;;;;;;;3.70;3.40;;;15.70;99.90;;;;;;5023458;28;20417;-59
2021/08/10 07:52:26;;;;;;;8.53;3.10;;;15.80;99.90;;;;;;5009491;28;20652;-58
2021/08/10 07:54:52;;;;;;;6.10;3.57;;;16.00;99.90;;;;;;5000576;28;20478;-59
2021/08/10 07:57:17;;;;;;;5.83;3.50;;;16.20;99.90;;;;;;5010064;28;20677;-58
2021/08/10 07:59:43;;;;;;;6.30;3.37;;;16.30;99.90;;;;;;5003104;28;20700;-60
2021/08/10 08:02:09;;;;;;;16.03;3.17;;;16.50;99.90;;;;;;5004004;28;20195;-60
2021/08/10 08:04:35;;;;;;;4.07;3.00;;;16.60;99.90;;;;;;5008255;28;20173;-60
2021/08/10 08:07:01;;;;;;;4.60;3.57;;;16.80;99.90;;;;;;5008981;28;20176;-60
2021/08/10 08:09:28;;;;;;;4.70;3.50;;;16.90;99.90;;;;;;5006895;28;20725;-62
2021/08/10 08:11:53;;;;;;;4.37;3.10;;;17.00;99.90;;;;;;5007332;28;20465;-61
2021/08/10 08:14:20;;;;;;;4.03;3.60;;;17.10;99.90;;;;;;5009834;28;20502;-61
2021/08/10 08:16:47;;;;;;;3.47;3.17;;;17.20;99.90;;;;;;5010482;28;20196;-60
2021/08/10 08:19:13;;;;;;;7.03;3.70;;;17.40;99.90;;;;;;5007230;28;20475;-60
2021/08/10 08:21:39;;;;;;;4.50;3.07;;;17.60;99.90;;;;;;5006922;28;20455;-59
2021/08/10 08:24:05;;;;;;;5.20;3.27;;;17.70;99.90;;;;;;5007266;28;20999;-59
2021/08/10 08:26:31;;;;;;;6.60;3.03;;;17.90;99.90;;;;;;5004956;28;20211;-60
2021/08/10 08:39:18;;;;;;;18.33;3.57;;;18.80;99.40;;;;;;5146925;23;20597;-60
2021/08/10 08:41:46;;;;;;;5.43;3.20;;;18.90;98.90;;;;;;5021880;28;20509;-58
2021/08/10 08:44:15;;;;;;;5.00;3.63;;;19.00;99.10;;;;;;5019042;28;20188;-58
2021/08/10 08:46:41;;;;;;;15.70;3.77;;;19.10;98.50;;;;;;5027947;28;20437;-57
2021/08/10 08:49:08;;;;;;;12.77;4.03;;;19.30;97.40;;;;;;5025986;28;20441;-58
2021/08/10 08:51:34;;;;;;;10.80;3.80;;;19.40;95.80;;;;;;5024453;28;20762;-59
2021/08/10 08:54:02;;;;;;;3.90;2.80;;;19.60;94.40;;;;;;5031283;28;20403;-61
2021/08/10 08:56:27;;;;;;;5.10;3.20;;;19.70;89.80;;;;;;5029265;28;20485;-59
2021/08/10 08:58:55;;;;;;;5.10;3.10;;;19.80;87.50;;;;;;5028741;28;20965;-59
2021/08/10 09:01:21;;;;;;;5.30;3.60;;;19.80;87.40;;;;;;5029016;28;20573;-60
2021/08/10 09:03:46;;;;;;;4.57;3.00;;;19.90;80.40;;;;;;5012770;28;20415;-60
2021/08/10 09:06:12;;;;;;;5.27;2.90;;;20.00;80.70;;;;;;5024847;28;20498;-60
2021/08/10 09:08:42;;;;;;;6.63;3.10;;;20.20;75.80;;;;;;5015099;28;20196;-60
2021/08/10 09:11:14;;;;;;;4.90;3.30;;;20.30;77.20;;;;;;5028021;28;20168;-59
2021/08/10 09:14:01;;;;;;;6.23;2.80;;;20.30;70.00;;;;;;5028734;28;20453;-59
2021/08/10 09:16:29;;;;;;;6.30;3.17;;;20.40;71.10;;;;;;5031847;28;20527;-59
2021/08/10 09:18:55;;;;;;;4.00;2.73;;;20.40;68.20;;;;;;5030612;28;21139;-59
2021/08/10 09:21:23;;;;;;;4.47;3.20;;;20.50;67.80;;;;;;5028198;28;20473;-60
2021/08/10 09:23:51;;;;;;;3.23;2.80;;;20.60;70.80;;;;;;5024681;28;20287;-59
2021/08/10 09:26:20;;;;;;;6.10;3.10;;;20.70;70.50;;;;;;5025593;28;20951;-60
2021/08/10 09:28:47;;;;;;;5.80;3.03;;;20.70;72.60;;;;;;5028233;28;20446;-59
2021/08/10 09:31:42;;;;;;;4.07;3.40;;;20.80;71.00;;;;;;5026287;28;20449;-59
2021/08/10 09:34:23;;;;;;;4.30;3.20;;;20.80;74.00;;;;;;5007079;28;20419;-59
2021/08/10 09:36:49;;;;;;;5.23;2.90;;;20.80;75.30;;;;;;5029719;28;20473;-60
2021/08/10 09:39:15;;;;;;;3.37;2.97;;;20.90;74.50;;;;;;5022042;28;20465;-59
2021/08/10 09:42:04;;;;;;;4.43;2.83;;;21.00;76.70;;;;;;5029008;28;20909;-60
2021/08/10 09:44:29;;;;;;;3.73;2.90;;;21.20;70.10;;;;;;5029865;28;20318;-59
2021/08/10 09:46:55;;;;;;;5.63;3.10;;;21.30;68.00;;;;;;5021692;28;20865;-64
2021/08/10 09:49:21;;;;;;;4.27;3.00;;;21.40;65.00;;;;;;5025231;28;20206;-58
2021/08/10 09:51:50;;;;;;;5.30;2.97;;;21.60;66.70;;;;;;5019168;28;20659;-60
2021/08/10 09:54:17;;;;;;;7.07;3.17;;;21.70;69.40;;;;;;5022431;28;20445;-61
2021/08/10 09:56:48;;;;;;;4.73;3.10;;;21.80;65.60;;;;;;5020532;28;20565;-62
2021/08/10 09:59:15;;;;;;;6.30;3.37;;;21.80;65.30;;;;;;5025540;28;20450;-60
2021/08/10 10:01:43;;;;;;;5.37;3.63;;;21.90;68.10;;;;;;5026574;28;20433;-61
2021/08/10 10:04:22;;;;;;;4.30;3.10;;;21.90;66.40;;;;;;5017113;28;20467;-61
2021/08/10 10:07:07;;;;;;;4.40;3.00;;;22.00;65.40;;;;;;5028404;28;20426;-56
2021/08/10 10:09:34;;;;;;;6.00;2.90;;;22.10;63.50;;;;;;5013883;28;20457;-59
2021/08/10 10:12:00;;;;;;;3.97;2.63;;;22.10;62.50;;;;;;5020881;28;20466;-58
2021/08/10 10:14:27;;;;;;;3.30;2.67;;;22.20;63.20;;;;;;5022545;28;20442;-58
2021/08/10 10:16:54;;;;;;;4.73;2.47;;;22.30;62.10;;;;;;5028094;28;20482;-60
2021/08/10 10:19:21;;;;;;;4.63;2.97;;;22.40;59.80;;;;;;5026656;28;20504;-58
2021/08/10 10:21:48;;;;;;;5.27;3.13;;;22.40;61.30;;;;;;5020533;28;20824;-58
2021/08/10 10:24:15;;;;;;;3.70;3.23;;;22.50;60.60;;;;;;5024368;28;20447;-57
2021/08/10 10:26:43;;;;;;;5.63;2.63;;;22.40;59.70;;;;;;5022715;28;20529;-61
2021/08/10 10:29:11;;;;;;;5.00;3.30;;;22.40;58.90;;;;;;5021151;28;20517;-58
2021/08/10 10:31:37;;;;;;;8.07;3.33;;;22.40;59.40;;;;;;5022939;28;20434;-57
2021/08/10 10:34:04;;;;;;;6.27;3.03;;;22.30;60.90;;;;;;5024757;28;20430;-57
2021/08/10 10:36:30;;;;;;;5.57;3.00;;;22.30;62.10;;;;;;5015448;28;20473;-58
2021/08/10 10:38:59;;;;;;;4.07;2.90;;;22.20;62.90;;;;;;5023998;28;20471;-57
2021/08/10 10:41:29;;;;;;;9.40;3.07;;;22.20;63.50;;;;;;5022233;28;20780;-57
2021/08/10 10:43:55;;;;;;;3.90;3.33;;;22.40;64.90;;;;;;5025405;28;20513;-58
2021/08/10 10:46:36;;;;;;;3.90;3.13;;;22.60;67.30;;;;;;5021724;28;20422;-56
2021/08/10 10:49:04;;;;;;;3.20;2.93;;;22.80;65.00;;;;;;5026302;28;20278;-58
2021/08/10 10:51:39;;;;;;;4.67;3.43;;;23.00;64.60;;;;;;5031563;28;20434;-58
2021/08/10 10:54:26;;;;;;;8.83;3.70;;;23.30;63.00;;;;;;5029798;28;20430;-59
2021/08/10 10:56:59;;;;;;;2.93;2.67;;;23.60;59.30;;;;;;5023917;28;20461;-59
2021/08/10 10:59:33;;;;;;;4.97;3.17;;;23.70;58.80;;;;;;5025148;28;20518;-58
2021/08/10 11:02:12;;;;;;;6.67;3.40;;;23.80;56.50;;;;;;5026889;28;20441;-58
2021/08/10 11:04:38;;;;;;;4.93;2.80;;;24.00;56.80;;;;;;5039010;28;20536;-58
2021/08/10 11:07:44;;;;;;;3.47;2.53;;;24.10;54.30;;;;;;5024280;28;20439;-58
2021/08/10 11:10:31;;;;;;;6.30;3.37;;;24.30;54.50;;;;;;5022414;28;20184;-58
2021/08/10 11:12:56;;;;;;;4.83;3.00;;;24.40;54.70;;;;;;5024545;28;21249;-58
2021/08/10 11:15:45;;;;;;;4.73;3.10;;;24.60;54.00;;;;;;5023225;28;20516;-58
2021/08/10 11:18:10;;;;;;;5.03;2.90;;;24.70;53.90;;;;;;5009639;28;20236;-58
2021/08/10 11:20:38;;;;;;;2.90;2.60;;;24.80;53.10;;;;;;5022492;28;20433;-60
2021/08/10 11:23:23;;;;;;;4.80;2.90;;;24.90;53.60;;;;;;5025537;28;20674;-60
2021/08/10 11:26:13;;;;;;;5.70;3.10;;;25.00;54.30;;;;;;5027333;28;20445;-59
2021/08/10 11:28:46;;;;;;;4.33;3.10;;;25.10;53.70;;;;;;5022790;28;20442;-58
2021/08/10 11:31:12;;;;;;;6.00;3.20;;;25.30;53.80;;;;;;5021360;28;20431;-58
2021/08/10 11:33:40;;;;;;;4.07;3.13;;;25.40;53.20;;;;;;5043308;28;20430;-58
2021/08/10 11:36:09;;;;;;;4.07;2.90;;;25.40;52.10;;;;;;5027506;28;20559;-56
2021/08/10 11:38:55;;;;;;;5.13;3.17;;;25.40;51.90;;;;;;5024637;28;20477;-59
2021/08/10 11:41:27;;;;;;;4.80;2.77;;;25.50;52.00;;;;;;5028726;28;21648;-60
2021/08/10 11:43:55;;;;;;;5.33;3.07;;;25.60;52.60;;;;;;5029903;28;20448;-58
2021/08/10 11:46:33;;;;;;;8.23;3.57;;;25.70;52.30;;;;;;5028638;28;21053;-59
2021/08/10 11:49:04;;;;;;;6.37;3.53;;;25.70;51.50;;;;;;5030687;28;20453;-59
2021/08/10 11:51:38;;;;;;;3.23;2.83;;;25.80;52.60;;;;;;5029008;28;20446;-61
2021/08/10 11:54:18;;;;;;;4.40;3.07;;;25.90;51.40;;;;;;5030011;28;20421;-59
2021/08/10 11:56:49;;;;;;;5.60;3.50;;;25.90;52.00;;;;;;5030633;28;20536;-59
2021/08/10 11:59:18;;;;;;;3.57;3.03;;;25.90;50.90;;;;;;5029283;28;20563;-58
2021/08/10 12:01:45;;;;;;;8.37;2.90;;;26.00;51.30;;;;;;5029548;28;20438;-60
2021/08/10 12:04:19;;;;;;;4.43;3.00;;;26.20;53.20;;;;;;5034446;28;20414;-60
2021/08/10 12:06:47;;;;;;;4.20;3.27;;;26.40;51.60;;;;;;5031153;28;20440;-59
2021/08/10 12:09:18;;;;;;;4.93;3.00;;;26.60;51.10;;;;;;5030553;28;20508;-58
2021/08/10 12:11:50;;;;;;;4.90;2.70;;;26.70;50.70;;;;;;5030700;28;20429;-58
2021/08/10 12:14:18;;;;;;;3.43;3.00;;;26.90;50.60;;;;;;5029617;28;20445;-57
2021/08/10 12:17:07;;;;;;;8.53;3.40;;;27.00;49.20;;;;;;5026544;28;20919;-57
2021/08/10 12:19:44;;;;;;;4.80;3.10;;;27.00;49.10;;;;;;5027703;28;20453;-58
2021/08/10 12:22:23;;;;;;;4.20;3.27;;;27.10;48.70;;;;;;5033570;28;20420;-58
2021/08/10 12:24:54;;;;;;;7.20;3.03;;;27.20;48.60;;;;;;5044548;28;20417;-58
2021/08/10 12:27:26;;;;;;;4.70;3.23;;;27.40;48.30;;;;;;5037362;28;20447;-59
2021/08/10 12:29:52;;;;;;;3.33;2.97;;;27.50;48.40;;;;;;5037580;28;20438;-60
2021/08/10 12:32:24;;;;;;;5.87;3.30;;;27.60;47.70;;;;;;5036744;28;20533;-61
2021/08/10 12:34:54;;;;;;;4.20;2.70;;;27.70;48.00;;;;;;5036395;28;20163;-61
2021/08/10 12:37:32;;;;;;;8.20;3.20;;;27.80;46.40;;;;;;5030429;28;20862;-60
2021/08/10 12:39:59;;;;;;;3.43;2.50;;;27.60;46.60;;;;;;5025190;28;20450;-60
2021/08/10 12:42:25;;;;;;;4.80;3.37;;;27.70;46.70;;;;;;5028234;28;20492;-61
2021/08/10 12:44:52;;;;;;;3.13;2.83;;;27.70;46.70;;;;;;5030169;28;20442;-60
2021/08/10 12:47:34;;;;;;;3.27;2.90;;;27.60;46.90;;;;;;5027784;28;20427;-58
2021/08/10 12:50:00;;;;;;;4.00;3.40;;;27.50;46.80;;;;;;5018868;28;20461;-59
2021/08/10 12:52:45;;;;;;;4.70;3.23;;;27.30;47.40;;;;;;5023333;28;20426;-60
2021/08/10 12:55:11;;;;;;;3.93;3.30;;;27.00;47.90;;;;;;5026609;28;20426;-59
2021/08/10 12:57:37;;;;;;;5.60;3.20;;;26.80;48.20;;;;;;5020786;28;21023;-59
2021/08/10 13:00:16;;;;;;;3.70;3.17;;;26.70;48.70;;;;;;5028163;28;20175;-59
2021/08/10 13:02:44;;;;;;;6.30;3.13;;;26.40;48.10;;;;;;5020411;28;20422;-59
2021/08/10 13:05:14;;;;;;;5.07;3.20;;;26.30;49.60;;;;;;5027783;28;20433;-57
2021/08/10 13:08:04;;;;;;;3.33;2.87;;;26.10;49.50;;;;;;5023253;28;20499;-57
2021/08/10 13:10:32;;;;;;;5.83;3.10;;;26.10;49.80;;;;;;5029342;28;20484;-57
2021/08/10 13:13:06;;;;;;;4.37;3.07;;;26.20;49.40;;;;;;5027231;28;20438;-57
2021/08/10 13:15:42;;;;;;;5.60;3.57;;;26.10;50.10;;;;;;5024708;28;20437;-57
2021/08/10 13:18:40;;;;;;;3.97;2.83;;;26.10;50.10;;;;;;5024123;28;20553;-57